Ralph Wenz Field
KPNA : now visible

Airfield :











YOU CAN JOIN US ON...

 
LOGIN :

Register | Disclaimer

   EN    FR    IT 

 









Legend :    VFR   Marginal VFR   IFR   Intensive IFR   Very Intensive IFR
Visi :
Ceiling :
>= 8 km
>= 3000ft
5 to 8 km
1000 to 3000 ft
1500m to 5 km
500 to 1000 ft
800 to 1500m
200 to 500 ft
< 800m
< 200 ft
Symbols :   Thunderstorms  Fog  Heavy snow  Heavy precipitations  Wind > 20 kt






- Airport Elevation : 7102 ft


KPNA - Ralph Wenz Field

CURRENT METAR :
  • 110915Z AUTO 29006KT 10SM CLR M19/M21 A3021 RMK AO2 TSNO

EXPIRED METARs :
  • 110855Z AUTO 32008KT 10SM CLR M19/M21 A3021 RMK AO2 TSNO
  • 110835Z AUTO 31005KT 10SM CLR M20/M22 A3021 RMK AO2 TSNO
  • 110815Z AUTO 29005KT 10SM CLR M19/M21 A3022 RMK AO2 TSNO
  • 110755Z AUTO 28006KT 10SM CLR M20/M22 A3023 RMK AO2 TSNO
  • 110735Z AUTO 28008KT 10SM CLR M18/M21 A3023 RMK AO2 TSNO
  • 110715Z AUTO 31007KT 10SM CLR M18/M20 A3023 RMK AO2 TSNO
  • 110655Z AUTO 30006KT 10SM CLR M18/M21 A3024 RMK AO2 TSNO
  • 110635Z AUTO 29005KT 10SM CLR M18/M20 A3024 RMK AO2 TSNO

TAF KPNA
Valid from the 11 at 06:00 until the 12 at 06:00 UTC


110524Z 1106/1206 VRB04KT P6SM SCT250
FM111500 VRB05KT P6SM SCT050 BKN080
FM112000 30006KT P6SM VCSH SCT025 BKN040
FM120200 29005KT P6SM BKN045 AMD LTD TO CLD VIS AND WIND



MET'MAP, your aeronautical weather chart ! - Copyright ORBIFLY December 2007 - Disclaimer

ORBIFLY MET'MAP TEAM :

Programming & Development : Alexandra Zaïnal
Concept & original design : Baudouin d'Aumeries
Assistance for programming : Marc-Olivier Méhu
Technical & hardware support : Manuel Goepfert

Contact : metmap@orbifly.com




SOURCES & CREDITS :

   NOAA       Earth
Advisory